Time;durP1;ratioP1;P1;durP2;ratioP2;P2;SDS_P1;SDS_P2;PMS_P1;PMS_P2;Temp;Humidity;BMP_temperature;BMP_pressure;BME280_temperature;BME280_humidity;BME280_pressure;Samples;Min_cycle;Max_cycle;Signal;HPM_P1;HPM_P2
2021/06/10 00:00:11;;;;;;;85.55;69.28;;;;;;;-150.07;46.81;64932.88;4956313;28;20027;-84
2021/06/10 00:02:38;;;;;;;85.55;67.72;;;;;;;-150.07;47.30;64983.13;4953640;28;20063;-84
2021/06/10 00:05:07;;;;;;;75.72;67.32;;;;;;;-150.07;47.63;64983.13;4970420;28;20054;-83
2021/06/10 00:07:34;;;;;;;;;;;;;;;-150.07;47.99;65008.25;4971331;28;20029;-84
2021/06/10 00:10:01;;;;;;;83.07;61.95;;;;;;;-150.07;48.14;64815.59;4963334;28;19985;-83
2021/06/10 00:12:28;;;;;;;76.30;64.18;;;;;;;-150.07;47.50;64987.31;4962100;28;20042;-82
2021/06/10 00:14:54;;;;;;;78.68;64.13;;;;;;;-150.07;48.24;64849.09;4962354;28;20027;-83
2021/06/10 00:17:21;;;;;;;69.60;59.20;;;;;;;-150.07;48.15;65045.97;4969293;28;20437;-83
2021/06/10 00:19:48;;;;;;;79.45;63.33;;;;;;;-150.07;48.30;65083.66;4979897;28;20042;-83
2021/06/10 00:22:15;;;;;;;77.03;61.53;;;;;;;-150.07;48.20;65607.31;4976259;28;20031;-83
2021/06/10 00:24:42;;;;;;;70.07;57.28;;;;;;;-150.07;48.07;64941.25;4965192;28;20022;-83
2021/06/10 00:27:09;;;;;;;69.18;56.22;;;;;;;-150.07;47.65;65100.41;4976203;28;20027;-84
2021/06/10 00:29:35;;;;;;;65.20;55.20;;;;;;;-150.07;47.66;65039.69;4959419;28;20054;-84
2021/06/10 00:32:02;;;;;;;70.75;51.03;;;;;;;-150.07;47.57;65192.56;4964100;28;20046;-83
2021/06/10 00:34:29;;;;;;;58.53;48.40;;;;;;;-150.07;47.03;65054.34;4965885;28;20147;-82
2021/06/10 00:36:57;;;;;;;63.95;50.13;;;;;;;-150.07;46.88;65875.44;4987587;28;20116;-83
2021/06/10 00:39:23;;;;;;;60.75;47.70;;;;;;;-150.07;47.42;66059.78;4988485;28;20105;-83
2021/06/10 00:41:50;;;;;;;51.65;45.17;;;;;;;-150.07;46.89;65825.16;4962985;28;20035;-83
2021/06/10 00:44:17;;;;;;;55.53;46.42;;;;;;;-150.07;46.99;65184.19;4977076;28;20055;-83
2021/06/10 00:46:44;;;;;;;53.63;46.78;;;;;;;-150.07;47.49;64826.06;4977496;28;20023;-84
2021/06/10 00:49:10;;;;;;;54.53;45.40;;;;;;;-150.07;46.80;65087.84;4978824;28;20003;-84
2021/06/10 00:51:41;;;;;;;53.38;47.10;;;;;;;-150.07;46.97;65173.72;4970427;28;20095;-85
2021/06/10 00:54:08;;;;;;;63.78;50.45;;;;;;;-150.07;46.75;65376.91;4964966;28;20066;-84
2021/06/10 00:56:35;;;;;;;57.42;46.78;;;;;;;-150.07;47.16;65020.84;4975256;28;20010;-86
2021/06/10 00:59:02;;;;;;;61.40;51.95;;;;;;;-150.07;46.17;65096.22;4983903;28;20085;-85
2021/06/10 01:01:29;;;;;;;68.38;54.10;;;;;;;-150.07;45.82;65303.59;4969644;28;20456;-84
2021/06/10 01:03:56;;;;;;;70.60;50.78;;;;;;;-150.07;45.59;65305.69;4963162;28;20031;-83
2021/06/10 01:06:38;;;;;;;60.55;49.47;;;;;;;-150.07;45.19;65720.41;4960528;28;20023;-82
2021/06/10 01:09:31;;;;;;;67.55;54.03;;;;;;;-150.07;46.01;65374.81;4962912;28;20086;-83
2021/06/10 01:12:13;;;;;;;58.97;52.50;;;;;;;-150.07;45.89;65481.63;4943825;28;20561;-83
2021/06/10 01:15:01;;;;;;;69.05;52.97;;;;;;;-150.07;46.23;65490.00;4970258;28;20042;-84
2021/06/10 01:17:31;;;;;;;68.60;51.80;;;;;;;-150.07;45.77;65217.72;4978321;28;20030;-84
2021/06/10 01:20:00;;;;;;;;;;;;;;;-150.07;46.03;65563.31;4978733;28;20045;-83
2021/06/10 01:22:27;;;;;;;52.42;41.42;;;;;;;-150.07;45.77;65695.28;4979007;28;19914;-83
2021/06/10 01:24:56;;;;;;;51.97;43.40;;;;;;;-150.07;44.42;66028.38;4981912;28;20050;-82
2021/06/10 01:27:28;;;;;;;44.67;39.10;;;;;;;-150.07;44.11;65917.34;4979898;28;20031;-83
2021/06/10 01:30:10;;;;;;;41.33;35.15;;;;;;;-150.07;43.43;66315.38;4979521;28;20030;-82
2021/06/10 01:32:45;;;;;;;41.35;33.17;;;;;;;-150.07;41.87;66070.25;4977528;28;20031;-83
2021/06/10 01:35:14;;;;;;;39.97;33.67;;;;;;;-150.07;41.66;66382.44;4979729;28;20086;-82
2021/06/10 01:37:42;;;;;;;33.33;29.70;;;;;;;-150.07;41.64;66960.72;4979767;28;20027;-82
2021/06/10 01:40:10;;;;;;;38.25;33.17;;;;;;;-150.07;40.80;66076.53;4978828;28;20038;-81
2021/06/10 01:42:39;;;;;;;35.65;30.33;;;;;;;-150.07;41.79;66158.25;4979132;28;20113;-83
2021/06/10 01:45:11;;;;;;;44.88;35.13;;;;;;;-150.07;42.46;65976.00;4981111;28;20436;-81
2021/06/10 01:47:41;;;;;;;44.95;34.50;;;;;;;-150.07;43.65;65896.38;4950125;28;20107;-82
2021/06/10 01:50:09;;;;;;;37.85;32.20;;;;;;;-150.07;43.01;65837.72;4945230;29;20030;-82
2021/06/10 01:52:39;;;;;;;35.33;31.13;;;;;;;-150.07;42.66;65737.19;4942382;29;20034;-81
2021/06/10 01:55:13;;;;;;;44.85;37.63;;;;;;;-150.07;42.82;65996.94;4940527;29;20042;-83
2021/06/10 01:57:41;;;;;;;46.90;38.00;;;;;;;-150.07;43.19;65737.19;4938170;29;20032;-82
2021/06/10 02:00:11;;;;;;;45.15;39.42;;;;;;;-150.07;43.53;65820.97;4938540;29;20028;-82
2021/06/10 02:02:39;;;;;;;50.45;39.22;;;;;;;-150.07;43.33;65890.09;4938828;29;20031;-81
2021/06/10 02:05:08;;;;;;;41.65;36.55;;;;;;;-150.07;43.15;65565.41;4939048;29;20469;-83
2021/06/10 02:07:42;;;;;;;;;;;;;;;-150.07;43.19;65781.16;4939762;29;20027;-83
2021/06/10 02:10:12;;;;;;;42.25;36.33;;;;;;;-150.07;43.15;66309.09;4939740;29;20005;-83
2021/06/10 02:12:39;;;;;;;42.90;37.35;;;;;;;-150.07;43.05;65519.31;4940177;29;20508;-82
2021/06/10 02:15:08;;;;;;;38.58;33.92;;;;;;;-150.07;42.94;65427.16;4941715;29;20034;-84
2021/06/10 02:17:36;;;;;;;44.40;36.83;;;;;;;-150.07;42.97;65362.22;4951436;28;20079;-85
2021/06/10 02:20:06;;;;;;;49.95;33.53;;;;;;;-150.07;41.78;65393.66;4959660;28;20038;-84
2021/06/10 02:22:36;;;;;;;46.58;33.15;;;;;;;-150.07;42.32;66336.34;4960533;28;20027;-82
2021/06/10 02:25:04;;;;;;;36.13;31.15;;;;;;;-150.07;41.64;65420.88;4958665;28;20052;-85
2021/06/10 02:27:30;;;;;;;36.63;32.03;;;;;;;-150.07;41.90;65557.03;4957592;28;20037;-82
2021/06/10 02:29:58;;;;;;;38.17;29.73;;;;;;;-150.07;40.85;65391.56;4958042;28;20041;-84
2021/06/10 02:32:24;;;;;;;32.67;28.73;;;;;;;-150.07;40.38;65255.41;4960057;28;20036;-83
2021/06/10 02:34:52;;;;;;;33.45;26.23;;;;;;;-150.07;40.89;66143.59;4960084;28;20035;-82
2021/06/10 02:37:21;;;;;;;36.00;28.42;;;;;;;-150.07;40.65;65393.66;4961098;28;20055;-82
2021/06/10 02:39:52;;;;;;;36.47;29.67;;;;;;;-150.07;40.44;65785.34;4960569;28;20038;-83
2021/06/10 02:42:20;;;;;;;29.40;26.33;;;;;;;-150.07;39.96;65670.16;4960793;28;20041;-83
2021/06/10 02:44:52;;;;;;;34.53;25.98;;;;;;;-150.07;40.13;65624.06;4964233;28;20050;-83
2021/06/10 02:47:21;;;;;;;29.75;26.48;;;;;;;-150.07;40.16;65760.22;4953123;28;20019;-81
2021/06/10 02:49:49;;;;;;;35.20;28.75;;;;;;;-150.07;39.92;65858.69;4941113;29;20024;-81
2021/06/10 02:52:23;;;;;;;40.15;26.38;;;;;;;-150.07;39.32;65816.78;4964251;28;20038;-84
2021/06/10 02:54:51;;;;;;;28.33;24.45;;;;;;;-150.07;39.62;65728.81;4948126;28;20699;-84
2021/06/10 02:57:21;;;;;;;40.85;23.88;;;;;;;-150.07;39.63;65833.53;4960838;28;20063;-82
2021/06/10 02:59:50;;;;;;;25.50;22.48;;;;;;;-150.07;39.29;65737.19;4964526;28;20118;-85
2021/06/10 03:02:18;;;;;;;27.40;22.33;;;;;;;-150.07;39.00;65695.28;4975726;28;20102;-84
2021/06/10 03:04:47;;;;;;;24.88;22.27;;;;;;;-150.07;38.89;65783.25;4980972;28;20050;-82
2021/06/10 03:07:18;;;;;;;24.40;21.88;;;;;;;-150.07;38.88;65839.81;4978424;28;20031;-82
2021/06/10 03:09:47;;;;;;;25.58;21.17;;;;;;;-150.07;38.21;66403.38;4947215;28;20034;-81
2021/06/10 03:12:18;;;;;;;28.23;23.38;;;;;;;-150.07;38.47;66193.88;4967362;28;20428;-83
2021/06/10 03:14:45;;;;;;;28.83;24.73;;;;;;;-150.07;38.44;66275.56;4962641;28;20027;-82
2021/06/10 03:17:15;;;;;;;24.88;22.25;;;;;;;-150.07;37.86;66441.09;4958641;28;20035;-84
2021/06/10 03:19:44;;;;;;;28.48;24.77;;;;;;;-150.07;37.50;66696.69;4956619;28;20054;-81
2021/06/10 03:22:11;;;;;;;30.92;25.13;;;;;;;-150.07;37.06;66759.56;4956170;28;20039;-84
2021/06/10 03:24:39;;;;;;;25.65;22.92;;;;;;;-150.07;37.32;66545.84;4965131;28;20019;-83
2021/06/10 03:27:07;;;;;;;26.88;24.10;;;;;;;-150.07;37.57;66371.94;4978035;28;20103;-81
2021/06/10 03:29:35;;;;;;;26.40;23.58;;;;;;;-150.07;37.39;66795.19;4973695;28;20038;-82
2021/06/10 03:32:03;;;;;;;30.20;22.83;;;;;;;-150.07;38.15;66912.53;4981594;28;20046;-81
2021/06/10 03:34:32;;;;;;;27.65;22.63;;;;;;;-150.07;37.89;67472.03;4970388;28;20117;-83
2021/06/10 03:37:01;;;;;;;24.00;21.35;;;;;;;-150.07;37.21;66627.56;4970079;28;20034;-85
2021/06/10 03:39:30;;;;;;;23.00;20.73;;;;;;;-150.07;37.56;67247.81;4968681;28;20059;-82
2021/06/10 03:41:59;;;;;;;22.95;20.00;;;;;;;-150.07;38.88;66413.84;4975568;28;20385;-83
2021/06/10 03:44:31;;;;;;;21.40;19.23;;;;;;;-150.07;37.91;66480.91;4948709;29;20117;-84
2021/06/10 03:46:58;;;;;;;23.90;20.90;;;;;;;-150.07;37.84;66510.22;4968894;28;20053;-82
2021/06/10 03:49:25;;;;;;;23.13;20.42;;;;;;;-150.07;38.02;66564.69;4981089;28;20038;-84
2021/06/10 03:51:53;;;;;;;24.05;21.00;;;;;;;-150.07;38.01;66336.34;4981487;28;20039;-83
2021/06/10 03:54:20;;;;;;;22.75;19.55;;;;;;;-150.07;38.36;66382.44;4968184;28;20027;-82
2021/06/10 03:56:48;;;;;;;34.15;22.42;;;;;;;-150.07;38.62;66319.56;4975205;28;20031;-83
2021/06/10 03:59:15;;;;;;;24.88;21.15;;;;;;;-150.07;38.68;66087.03;4963540;28;20027;-84
2021/06/10 04:01:42;;;;;;;22.27;19.95;;;;;;;-150.07;38.63;66973.28;4961059;28;20062;-84
2021/06/10 04:04:09;;;;;;;26.23;22.02;;;;;;;-150.07;39.04;66294.44;4960840;28;20038;-84
2021/06/10 04:06:38;;;;;;;24.45;21.52;;;;;;;-150.07;39.29;66327.94;4964558;28;20023;-84
2021/06/10 04:09:07;;;;;;;26.23;22.77;;;;;;;-150.07;39.42;66166.63;4964547;28;20055;-82
2021/06/10 04:11:35;;;;;;;25.90;21.52;;;;;;;-150.07;39.69;66068.16;4952089;28;20028;-84
2021/06/10 04:14:02;;;;;;;26.80;21.38;;;;;;;-150.07;39.39;66156.16;4960558;28;20031;-85
2021/06/10 04:16:29;;;;;;;25.55;21.63;;;;;;;-150.07;39.88;65984.38;4938118;29;20039;-84
2021/06/10 04:18:56;;;;;;;67.07;47.78;;;;;;;-150.07;45.67;65226.09;4974905;28;20106;-85
2021/06/10 04:21:24;;;;;;;61.22;51.75;;;;;;;-150.07;47.35;64514.03;4972803;28;20023;-86
2021/06/10 04:23:51;;;;;;;69.55;53.67;;;;;;;-150.07;47.79;64823.97;4961483;28;20633;-86
2021/06/10 04:26:20;;;;;;;71.18;56.25;;;;;;;-150.07;47.55;65418.78;4962918;28;20023;-86
2021/06/10 04:28:48;;;;;;;60.35;53.97;;;;;;;-150.07;48.13;64405.13;4961409;28;20038;-86
2021/06/10 04:31:19;;;;;;;63.65;56.65;;;;;;;-150.07;48.15;64394.66;4961940;28;20035;-86
2021/06/10 04:33:46;;;;;;;60.95;53.40;;;;;;;-150.07;47.40;64786.25;4947992;28;20099;-84
2021/06/10 04:36:13;;;;;;;61.03;53.65;;;;;;;-150.07;46.25;64932.88;4959504;28;20020;-83
2021/06/10 04:38:40;;;;;;;60.90;49.25;;;;;;;-150.07;45.44;65249.13;4960430;28;20035;-84
2021/06/10 04:41:08;;;;;;;53.33;47.63;;;;;;;-150.07;44.56;65437.63;4962311;28;20029;-83
2021/06/10 04:43:35;;;;;;;57.95;48.83;;;;;;;-150.07;44.14;65383.19;4960421;28;20054;-83
2021/06/10 04:46:02;;;;;;;61.78;52.55;;;;;;;-150.07;45.39;64878.41;4952188;28;20503;-83
2021/06/10 04:48:29;;;;;;;58.03;51.92;;;;;;;-150.07;45.21;64968.47;4977471;28;20945;-83
2021/06/10 04:50:56;;;;;;;57.03;49.78;;;;;;;-150.07;44.95;66059.78;4974504;28;20114;-83
2021/06/10 04:53:23;;;;;;;61.88;48.63;;;;;;;-150.07;46.01;65121.38;4961510;28;20031;-84
2021/06/10 04:55:53;;;;;;;58.28;49.38;;;;;;;-150.07;46.02;64853.28;4958394;28;20031;-85
2021/06/10 04:58:20;;;;;;;56.90;50.67;;;;;;;-150.07;46.22;64999.88;4960224;28;20030;-84
2021/06/10 05:00:47;;;;;;;59.50;49.38;;;;;;;-150.07;44.63;65994.84;4978159;28;20027;-83
2021/06/10 05:03:14;;;;;;;54.00;47.75;;;;;;;-150.07;44.82;65100.41;4964924;28;20516;-84
2021/06/10 05:05:41;;;;;;;59.17;51.45;;;;;;;-150.07;45.02;65904.75;4968135;28;20046;-84
2021/06/10 05:08:08;;;;;;;57.92;51.42;;;;;;;-150.07;43.99;65494.19;4978719;28;20026;-84
2021/06/10 05:10:35;;;;;;;58.42;50.78;;;;;;;-150.07;43.78;66160.34;4960448;28;20028;-85
2021/06/10 05:13:02;;;;;;;52.47;46.60;;;;;;;-150.07;43.14;65691.09;4960406;28;20078;-85
2021/06/10 05:15:29;;;;;;;56.78;50.28;;;;;;;-150.07;43.80;65253.31;4961306;28;20024;-84
2021/06/10 05:17:56;;;;;;;62.70;51.55;;;;;;;-150.07;43.24;65586.34;4977974;28;20511;-83
2021/06/10 05:20:23;;;;;;;61.30;54.63;;;;;;;-150.07;43.01;65502.56;4969724;28;20121;-84
2021/06/10 05:22:50;;;;;;;58.25;48.38;;;;;;;-150.07;43.70;65458.59;4961176;28;20019;-84
2021/06/10 05:25:17;;;;;;;61.30;48.22;;;;;;;-150.07;42.71;65550.75;4966781;28;20027;-84
2021/06/10 05:27:44;;;;;;;56.50;48.42;;;;;;;-150.07;43.02;65448.09;4979133;28;20015;-83
2021/06/10 05:30:11;;;;;;;55.63;49.58;;;;;;;-150.07;42.71;65448.09;4964174;28;20028;-82
2021/06/10 05:32:38;;;;;;;56.00;47.35;;;;;;;-150.07;43.23;65427.16;4955586;28;20015;-84
2021/06/10 05:35:05;;;;;;;57.67;51.38;;;;;;;-150.07;43.94;65050.16;4967115;28;20032;-84
2021/06/10 05:37:32;;;;;;;62.13;51.55;;;;;;;-150.07;43.55;65360.13;4952331;29;20086;-82
2021/06/10 05:39:59;;;;;;;62.17;50.53;;;;;;;-150.07;44.42;65138.13;4958016;28;20035;-84
2021/06/10 05:42:26;;;;;;;60.92;50.83;;;;;;;-150.07;45.00;65048.06;4957496;28;20035;-85
2021/06/10 05:44:53;;;;;;;59.90;47.45;;;;;;;-150.07;44.32;65129.75;4955263;28;20082;-85
2021/06/10 05:47:19;;;;;;;50.30;44.88;;;;;;;-150.07;43.12;65642.91;4951428;28;20028;-83
2021/06/10 05:49:47;;;;;;;55.33;47.55;;;;;;;-150.07;42.56;65571.69;4961090;28;20023;-84
2021/06/10 05:52:14;;;;;;;53.80;45.15;;;;;;;-150.07;42.44;65569.59;4978729;28;20050;-84
2021/06/10 05:54:41;;;;;;;54.33;42.72;;;;;;;-150.07;42.08;65936.19;4962886;28;20401;-84
2021/06/10 05:57:10;;;;;;;46.97;39.92;;;;;;;-150.07;40.91;65678.53;4960456;28;20035;-84
2021/06/10 05:59:38;;;;;;;51.63;43.50;;;;;;;-150.07;42.00;65584.25;4964655;28;20019;-84
2021/06/10 06:02:05;;;;;;;48.80;43.47;;;;;;;-150.07;42.70;65460.69;4966308;28;20039;-83
2021/06/10 06:04:32;;;;;;;50.33;42.30;;;;;;;-150.07;43.44;66302.81;4962947;28;20027;-84
2021/06/10 06:06:58;;;;;;;54.13;48.40;;;;;;;-150.07;43.87;65180.00;4968222;28;20102;-84
2021/06/10 06:09:25;;;;;;;56.47;48.30;;;;;;;-150.07;43.82;65402.03;4960296;28;20030;-84
2021/06/10 06:11:54;;;;;;;56.60;49.63;;;;;;;-150.07;43.35;65159.06;4938975;29;20047;-84
2021/06/10 06:14:27;;;;;;;53.30;46.00;;;;;;;-150.07;43.22;65138.13;4956788;28;20032;-83
2021/06/10 06:16:53;;;;;;;51.45;44.13;;;;;;;-150.07;43.78;65014.53;4948811;29;20122;-84
2021/06/10 06:19:21;;;;;;;46.95;39.95;;;;;;;-150.07;42.60;65087.84;4940560;29;20043;-84
2021/06/10 06:21:48;;;;;;;47.53;42.63;;;;;;;-150.07;42.48;65217.72;4938346;29;20114;-84
2021/06/10 06:24:15;;;;;;;46.30;39.92;;;;;;;-150.07;42.89;65640.81;4940068;29;20027;-84
2021/06/10 06:26:42;;;;;;;48.15;37.95;;;;;;;-150.07;42.03;65603.13;4957484;28;20122;-83
2021/06/10 06:29:09;;;;;;;42.80;38.13;;;;;;;-150.07;42.32;65376.91;4939124;29;20422;-82
2021/06/10 06:31:37;;;;;;;38.85;34.65;;;;;;;-150.07;43.08;65133.94;4956899;28;20034;-84
2021/06/10 06:34:04;;;;;;;41.97;31.65;;;;;;;-150.07;42.25;65527.72;4955398;28;20114;-82
2021/06/10 06:36:31;;;;;;;39.65;31.73;;;;;;;-150.07;42.68;65138.13;4940359;29;20400;-83
2021/06/10 06:38:58;;;;;;;42.45;33.42;;;;;;;-150.07;42.90;64874.22;4939919;29;20071;-84
2021/06/10 06:41:28;;;;;;;34.95;31.23;;;;;;;-150.07;42.42;65062.72;4941936;28;20074;-84
2021/06/10 06:43:55;;;;;;;31.85;25.80;;;;;;;-150.07;41.83;65309.88;4942681;29;20087;-82
2021/06/10 06:46:22;;;;;;;33.95;26.60;;;;;;;-150.07;41.50;65816.78;4942087;28;20453;-83
2021/06/10 06:48:51;;;;;;;31.50;28.10;;;;;;;-150.07;42.21;64899.34;4959286;28;20043;-82
2021/06/10 06:51:18;;;;;;;35.08;28.58;;;;;;;-150.07;42.49;65108.78;4960202;28;20031;-83
2021/06/10 06:53:45;;;;;;;37.22;25.48;;;;;;;-150.07;42.76;65077.38;4961054;28;20481;-84
2021/06/10 06:56:11;;;;;;;35.03;27.55;;;;;;;-150.07;43.57;64832.34;4965387;28;20024;-84
2021/06/10 06:58:38;;;;;;;32.35;27.52;;;;;;;-150.07;43.37;64968.47;4979357;28;20026;-85
2021/06/10 07:01:05;;;;;;;31.48;27.13;;;;;;;-150.07;43.60;65693.19;4991125;28;20017;-85
2021/06/10 07:03:32;;;;;;;27.88;24.83;;;;;;;-150.07;43.00;64828.16;4985284;28;20087;-83
2021/06/10 07:05:59;;;;;;;29.77;26.27;;;;;;;-150.07;43.71;64865.84;4984480;28;20042;-84
2021/06/10 07:08:29;;;;;;;33.97;28.55;;;;;;;-150.07;43.81;64673.19;4976266;28;20031;-85
2021/06/10 07:10:56;;;;;;;38.67;29.13;;;;;;;-150.07;44.09;64756.94;4959350;28;20063;-84
2021/06/10 07:13:24;;;;;;;30.15;26.85;;;;;;;-150.07;44.29;64627.09;4962179;28;20035;-84
2021/06/10 07:15:51;;;;;;;37.35;27.73;;;;;;;-150.07;44.34;64505.63;4962242;28;20027;-84
2021/06/10 07:18:18;;;;;;;30.70;25.52;;;;;;;-150.07;44.40;64643.84;4974939;28;20078;-83
2021/06/10 07:20:45;;;;;;;32.30;26.52;;;;;;;-150.07;44.27;65200.94;4967763;28;20422;-84
2021/06/10 07:23:13;;;;;;;28.80;25.67;;;;;;;-150.07;43.95;64689.94;4972136;28;20035;-86
2021/06/10 07:25:40;;;;;;;35.40;27.50;;;;;;;-150.07;44.63;64516.13;4957027;28;20027;-86
2021/06/10 07:28:07;;;;;;;29.27;26.15;;;;;;;-150.07;44.45;64340.22;4956942;28;20106;-86
2021/06/10 07:30:35;;;;;;;29.25;25.63;;;;;;;-150.07;44.31;65020.84;4957168;28;20031;-86
2021/06/10 07:33:03;;;;;;;28.05;25.20;;;;;;;-150.07;44.98;64300.44;4959335;28;20027;-87
2021/06/10 07:35:33;;;;;;;30.10;27.00;;;;;;;-150.07;44.36;64614.53;4958750;28;20031;-85
2021/06/10 07:38:04;;;;;;;37.10;27.80;;;;;;;-150.07;44.49;64706.69;4958704;28;20034;-86
2021/06/10 07:40:32;;;;;;;32.93;26.37;;;;;;;-150.07;44.34;64593.59;4957262;28;20081;-86
2021/06/10 07:42:59;;;;;;;33.33;27.85;;;;;;;-150.07;44.62;64405.13;4973224;28;20342;-86
2021/06/10 07:45:28;;;;;;;33.10;27.83;;;;;;;-150.07;44.54;65058.53;4959414;28;20030;-86
2021/06/10 07:47:55;;;;;;;36.20;28.08;;;;;;;-150.07;44.65;64970.56;4957038;28;20078;-86
2021/06/10 07:50:23;;;;;;;39.40;27.63;;;;;;;-150.07;44.75;64384.19;4964255;28;20053;-86
2021/06/10 07:52:51;;;;;;;30.67;26.67;;;;;;;-150.07;44.40;63994.72;4976531;28;20030;-85
2021/06/10 07:55:20;;;;;;;33.90;25.08;;;;;;;-150.07;44.52;63975.88;4973542;28;20058;-78
2021/06/10 07:57:47;;;;;;;33.33;27.63;;;;;;;-150.07;45.16;64011.47;4972915;28;20181;-86
2021/06/10 08:00:15;;;;;;;36.60;28.02;;;;;;;-150.07;45.34;64769.50;4976879;28;20018;-80
2021/06/10 08:02:43;;;;;;;31.98;26.38;;;;;;;-150.07;45.49;64158.03;4975816;28;20026;-81
2021/06/10 08:05:12;;;;;;;31.58;26.13;;;;;;;-150.07;45.31;64333.94;4960852;28;20027;-80
2021/06/10 08:07:43;;;;;;;28.10;25.13;;;;;;;-150.07;45.16;64907.72;4962951;28;20054;-79
2021/06/10 08:10:12;;;;;;;35.65;28.58;;;;;;;-150.07;44.85;64262.72;4941374;29;20031;-80
2021/06/10 08:12:39;;;;;;;37.20;29.98;;;;;;;-150.07;44.74;64155.94;4957431;28;20035;-81
2021/06/10 08:15:07;;;;;;;34.22;27.73;;;;;;;-150.07;45.44;64346.50;4967783;28;20039;-79
2021/06/10 08:17:35;;;;;;;33.20;28.48;;;;;;;-150.07;43.95;64262.72;4970644;28;20035;-78
2021/06/10 08:20:08;;;;;;;37.15;29.60;;;;;;;-150.07;43.99;64065.91;4952511;28;20127;-79
2021/06/10 08:22:34;;;;;;;36.78;29.85;;;;;;;-150.07;43.92;64225.03;4982436;28;20090;-81
2021/06/10 08:25:01;;;;;;;32.97;27.42;;;;;;;-150.07;44.02;64683.66;4979364;28;20109;-82
2021/06/10 08:27:28;;;;;;;40.00;31.17;;;;;;;-150.07;44.53;64283.66;4989539;28;20019;-81
2021/06/10 08:29:55;;;;;;;42.25;32.20;;;;;;;-150.07;44.97;64055.44;4974178;28;20423;-77
2021/06/10 08:32:22;;;;;;;37.05;30.52;;;;;;;-150.07;46.18;64155.94;4975228;28;20033;-79
2021/06/10 08:34:50;;;;;;;35.90;31.67;;;;;;;-150.07;46.20;64124.53;4974675;28;20100;-79
2021/06/10 08:37:17;;;;;;;39.58;31.98;;;;;;;-150.07;46.07;63630.38;4974747;28;20119;-80
2021/06/10 08:39:44;;;;;;;36.08;29.42;;;;;;;-150.07;46.00;64074.28;4974640;28;20031;-78
2021/06/10 08:42:11;;;;;;;34.35;28.88;;;;;;;-150.07;46.45;64036.59;4974296;28;20030;-80
2021/06/10 08:44:39;;;;;;;38.20;30.80;;;;;;;-150.07;47.33;63622.03;4952900;28;20028;-78
2021/06/10 08:47:07;;;;;;;33.97;28.55;;;;;;;-150.07;48.37;64421.88;4954674;28;20098;-79
2021/06/10 08:49:35;;;;;;;33.55;28.33;;;;;;;-150.07;47.65;63739.25;4956168;28;20042;-79
2021/06/10 08:52:07;;;;;;;31.67;27.65;;;;;;;-150.07;47.90;63647.13;4974579;28;20031;-78
2021/06/10 08:54:34;;;;;;;39.40;28.73;;;;;;;-150.07;48.41;63674.34;4957186;28;20138;-79
2021/06/10 08:57:01;;;;;;;36.78;30.92;;;;;;;-150.07;48.79;63812.53;4954719;28;20031;-78
2021/06/10 08:59:29;;;;;;;37.53;31.35;;;;;;;-150.07;48.78;64618.72;4952663;28;20035;-77
2021/06/10 09:01:56;;;;;;;39.97;31.15;;;;;;;-150.07;48.95;64317.19;4954781;28;20027;-79
2021/06/10 09:04:23;;;;;;;35.55;30.48;;;;;;;-150.07;48.94;63617.81;4952587;28;20019;-79
2021/06/10 09:06:52;;;;;;;37.83;30.25;;;;;;;-150.07;48.92;63856.50;4948752;28;20035;-80
2021/06/10 09:09:36;;;;;;;36.88;30.35;;;;;;;-150.07;49.34;63613.66;4946347;28;20034;-81
2021/06/10 09:12:06;;;;;;;39.85;33.08;;;;;;;-150.07;49.93;64564.28;4947298;28;20043;-80
2021/06/10 09:14:57;;;;;;;54.40;35.40;;;;;;;-150.07;50.55;63741.34;4949483;28;20043;-83
2021/06/10 09:17:27;;;;;;;37.28;31.55;;;;;;;-150.07;51.09;63659.69;4948307;28;20034;-81
2021/06/10 09:19:53;;;;;;;;;;;;;;;-150.07;51.67;63619.91;4956275;28;20081;-79
2021/06/10 09:22:25;;;;;;;35.75;31.85;;;;;;;-150.07;51.21;63544.56;4950939;28;19989;-81
2021/06/10 09:24:52;;;;;;;61.47;51.30;;;;;;;-150.07;50.87;63655.50;4948843;28;20035;-80
2021/06/10 09:27:18;;;;;;;62.47;55.35;;;;;;;-150.07;50.72;63496.41;4955292;28;20038;-86
2021/06/10 09:29:50;;;;;;;52.95;44.03;;;;;;;-150.07;51.33;64409.31;4952310;28;20015;-79
2021/06/10 09:32:19;;;;;;;41.25;36.42;;;;;;;-150.07;51.10;64438.63;4954893;28;20087;-78
2021/06/10 09:34:52;;;;;;;56.30;48.28;;;;;;;-150.07;51.26;63203.31;4962738;28;20030;-88
2021/06/10 09:37:39;;;;;;;48.63;41.08;;;;;;;-150.07;52.06;63747.63;4969849;28;20032;-78
2021/06/10 09:40:18;;;;;;;57.72;46.28;;;;;;;-150.07;51.54;64472.13;4974023;28;20047;-77
2021/06/10 09:42:45;;;;;;;55.58;49.65;;;;;;;-150.07;51.35;63774.84;4959091;28;20492;-77
2021/06/10 09:45:21;;;;;;;65.55;51.15;;;;;;;-150.07;51.80;64176.88;4964104;28;20141;-77
2021/06/10 09:47:52;;;;;;;64.72;57.53;;;;;;;-150.07;51.90;63619.91;4955271;28;20039;-78
2021/06/10 09:50:30;;;;;;;68.85;59.53;;;;;;;-150.07;52.36;63768.56;4962323;28;20054;-79
2021/06/10 09:53:02;;;;;;;73.25;58.65;;;;;;;-150.07;52.62;63636.69;4963602;28;20162;-78
2021/06/10 09:55:41;;;;;;;74.35;59.08;;;;;;;-150.07;53.29;63590.63;4953939;28;20396;-76
2021/06/10 09:58:26;;;;;;;66.75;54.17;;;;;;;-150.07;53.80;63563.41;4953660;28;20086;-76
2021/06/10 10:00:53;;;;;;;66.30;53.15;;;;;;;-150.07;54.04;63552.94;4953089;28;20034;-78
2021/06/10 10:03:28;;;;;;;62.67;51.47;;;;;;;-150.07;54.44;63527.81;4949598;28;20134;-78
2021/06/10 10:05:59;;;;;;;62.72;47.13;;;;;;;-150.07;54.78;63471.28;4948219;28;20122;-79
2021/06/10 10:08:28;;;;;;;62.13;51.47;;;;;;;-150.07;55.15;63224.25;4947134;28;20016;-79
2021/06/10 10:10:59;;;;;;;64.15;50.53;;;;;;;-150.07;55.44;63383.34;4961499;28;20039;-79
2021/06/10 10:13:28;;;;;;;67.95;53.33;;;;;;;-150.07;55.28;63245.19;4955587;28;20030;-79
2021/06/10 10:15:58;;;;;;;66.55;53.40;;;;;;;-150.07;55.91;63500.59;4959182;28;20457;-79
2021/06/10 10:18:25;;;;;;;62.95;53.42;;;;;;;-150.07;55.65;63437.78;4955450;28;20103;-77
2021/06/10 10:20:53;;;;;;;56.08;47.33;;;;;;;-150.07;54.77;64220.84;4951401;28;20143;-75
2021/06/10 10:23:22;;;;;;;61.30;50.17;;;;;;;-150.07;54.70;63896.28;4960005;28;20727;-78
2021/06/10 10:25:56;;;;;;;55.97;40.28;;;;;;;-150.07;53.89;63259.84;4969865;28;20027;-84
2021/06/10 10:28:26;;;;;;;64.57;49.58;;;;;;;-150.07;55.30;64015.66;4951958;28;20067;-78
2021/06/10 10:30:53;;;;;;;51.65;46.03;;;;;;;-150.07;54.59;63504.78;4953974;28;20042;-79
2021/06/10 10:33:22;;;;;;;53.15;38.45;;;;;;;-150.07;52.28;63712.03;4956593;28;20027;-79
2021/06/10 10:36:00;;;;;;;32.85;27.92;;;;;;;-150.07;49.64;63747.63;4951789;28;20376;-79
2021/06/10 10:38:41;;;;;;;44.17;30.42;;;;;;;-150.07;49.70;63869.06;4951956;28;20062;-79
2021/06/10 10:41:15;;;;;;;46.35;30.70;;;;;;;-150.07;50.15;64637.56;4951982;28;20026;-79
2021/06/10 10:43:42;;;;;;;36.45;30.95;;;;;;;-150.07;50.35;63879.53;4945308;28;20031;-79
2021/06/10 10:46:18;;;;;;;40.55;28.05;;;;;;;-150.07;50.50;63894.19;4951802;28;20070;-79
2021/06/10 10:48:50;;;;;;;29.90;26.50;;;;;;;-150.07;50.37;63601.09;4952052;28;20057;-79
2021/06/10 10:51:34;;;;;;;32.92;27.58;;;;;;;-150.07;50.40;63961.22;4953577;28;20143;-79
2021/06/10 10:54:10;;;;;;;41.50;33.75;;;;;;;-150.07;49.77;63927.69;4950977;28;20038;-82
2021/06/10 10:56:42;;;;;;;29.45;24.98;;;;;;;-150.07;49.81;63567.59;4951649;28;20022;-81
2021/06/10 10:59:17;;;;;;;35.08;26.00;;;;;;;-150.07;49.65;63624.13;4950980;28;20085;-80
2021/06/10 11:02:09;;;;;;;30.63;24.88;;;;;;;-150.07;49.95;63996.81;4984088;28;20443;-80
2021/06/10 11:04:57;;;;;;;32.90;26.42;;;;;;;-150.07;50.15;63957.03;4951479;28;20035;-79
2021/06/10 11:07:39;;;;;;;31.98;25.33;;;;;;;-150.07;49.40;63967.50;4943655;28;20485;-79
2021/06/10 11:10:39;;;;;;;32.83;26.38;;;;;;;-150.07;49.88;64051.25;4959732;28;20023;-77